Airfield :
LOGIN :

Register | Disclaimer

   EN    FR    IT 

 










Legend :    VFR   Marginal VFR   IFR   Intensive IFR   Very Intensive IFR
Visi :
Ceiling :
>= 8 km
>= 3000ft
5 to 8 km
1000 to 3000 ft
1500m to 5 km
500 to 1000 ft
800 to 1500m
200 to 500 ft
< 800m
< 200 ft
Symbols :   Thunderstorms  Fog  Heavy snow  Heavy precipitations  Wind > 20 kt
SIGMETs :     Misc.  Thunderstorms  Icing  Turbulence  Mountain Waves  Volcanic Ashes






- Airport Elevation : 157 ft
- IATA code : LIL


LFQQ - Lille Lesquin

CURRENT METAR :
  • 170600Z AUTO 16009KT CAVOK 11/10 Q1009 TEMPO BKN012

EXPIRED METARs :
  • 170530Z AUTO 18005KT 150V210 9999 SCT041 OVC054 11/10 Q1009 NOSIG
  • 170500Z AUTO 20005KT 9999 FEW023 BKN044 OVC056 11/11 Q1009 NOSIG
  • 170430Z AUTO 22006KT 9999 FEW029 BKN046 OVC054 11/10 Q1009 NOSIG
  • 170400Z AUTO 23006KT 9999 OVC049 11/10 Q1009 NOSIG
  • 170330Z AUTO 24007KT CAVOK 11/10 Q1009 NOSIG

TAF TAF LFQQ
Valid from the 17 at 06:00 until the 18 at 12:00 UTC


170500Z 1706/1812 20007KT 9999 BKN045
TEMPO 1707/1710 BKN012
TEMPO 1720/1806 4000 SHRA BKN017TCU
TEMPO 1806/1808 22020G35KT 2000 SHRA BKN017CB
PROB40
TEMPO 1806/1808 TSRA
ATIS : +33 3 20 16 19 54



MET'MAP, your aeronautical weather chart ! - Copyright ORBIFLY December 2007 - Disclaimer

ORBIFLY MET'MAP TEAM :

Programming & Development : Alexandra Zaïnal
Concept & Development : Baudouin d'Aumeries
Co-Development & Prog : Marc-Olivier Méhu
Technical & hardware support : Manuel Goepfert

Contact : metmap@orbifly.com




SOURCES & CREDITS :

   NOAA